createdAt,value
2022-08-05T00:00:23.182Z,11.52
2022-08-05T00:02:52.477Z,12.65
2022-08-05T00:06:02.583Z,18.77
2022-08-05T00:08:32.769Z,12.88
2022-08-05T00:11:00.915Z,10.57
2022-08-05T00:13:39.620Z,10.55
2022-08-05T00:16:14.505Z,11.85
2022-08-05T00:18:48.223Z,16.42
2022-08-05T00:21:17.576Z,17.95
2022-08-05T00:23:53.649Z,32.40
2022-08-05T00:26:35.491Z,33.47
2022-08-05T00:29:02.721Z,21.20
2022-08-05T00:31:54.085Z,23.80
2022-08-05T00:34:56.204Z,36.67
2022-08-05T00:37:11.128Z,23.58
2022-08-05T00:39:44.572Z,31.92
2022-08-05T00:42:38.523Z,33.05
2022-08-05T00:45:11.625Z,23.40
2022-08-05T00:47:57.229Z,33.25
2022-08-05T00:50:29.362Z,31.88
2022-08-05T00:52:56.591Z,57.63
2022-08-05T00:55:34.172Z,62.83
2022-08-05T00:58:12.014Z,37.80
2022-08-05T01:00:40.468Z,31.55
2022-08-05T01:03:15.000Z,42.42
2022-08-05T01:05:54.797Z,40.10
2022-08-05T01:08:30.676Z,20.42
2022-08-05T01:11:22.451Z,30.17
2022-08-05T01:14:02.779Z,36.88
2022-08-05T01:16:44.225Z,24.65
2022-08-05T01:19:56.854Z,23.80
2022-08-05T01:22:41.873Z,30.85
2022-08-05T01:25:40.959Z,28.42
2022-08-05T01:28:23.891Z,18.65
2022-08-05T01:30:57.243Z,14.55
2022-08-05T01:33:35.460Z,13.88
2022-08-05T01:36:13.061Z,15.95
2022-08-05T01:38:48.487Z,26.05
2022-08-05T01:41:22.072Z,22.85
2022-08-05T01:43:51.112Z,19.10
2022-08-05T01:46:42.849Z,21.13
2022-08-05T01:49:23.789Z,19.15
2022-08-05T01:52:01.643Z,21.67
2022-08-05T01:54:58.431Z,23.50
2022-08-05T01:58:12.867Z,21.20
2022-08-05T02:00:19.166Z,20.40
2022-08-05T02:02:55.423Z,15.48
2022-08-05T02:05:29.220Z,11.93
2022-08-05T02:08:01.435Z,15.27
2022-08-05T02:10:37.937Z,19.25
2022-08-05T02:13:28.736Z,16.33
2022-08-05T02:16:24.255Z,17.25
2022-08-05T02:19:47.283Z,14.02
2022-08-05T02:22:26.535Z,12.18
2022-08-05T02:25:12.712Z,17.38
2022-08-05T02:27:59.319Z,11.32
2022-08-05T02:30:34.623Z,16.45
2022-08-05T02:33:03.559Z,9.85
2022-08-05T02:35:37.728Z,11.40
2022-08-05T02:38:19.540Z,10.90
2022-08-05T02:40:54.477Z,11.18
2022-08-05T02:43:24.814Z,9.05
2022-08-05T02:45:53.992Z,11.25
2022-08-05T02:48:29.516Z,13.73
2022-08-05T02:51:06.730Z,12.55
2022-08-05T02:53:40.470Z,16.75
2022-08-05T02:56:16.044Z,15.73
2022-08-05T02:58:51.209Z,9.32
2022-08-05T03:01:25.511Z,16.63
2022-08-05T03:04:02.733Z,11.85
2022-08-05T03:06:54.923Z,18.10
2022-08-05T03:09:27.213Z,25.23
2022-08-05T03:12:05.920Z,21.17
2022-08-05T03:14:33.154Z,15.82
2022-08-05T03:17:00.849Z,26.98
2022-08-05T03:19:33.793Z,21.50
2022-08-05T03:22:01.573Z,16.13
2022-08-05T03:24:30.958Z,11.65
2022-08-05T03:26:59.599Z,8.55
2022-08-05T03:29:45.551Z,9.98
2022-08-05T03:32:15.888Z,11.07
2022-08-05T03:34:50.560Z,9.57
2022-08-05T03:37:22.795Z,8.60
2022-08-05T03:39:58.927Z,8.73
2022-08-05T03:42:29.062Z,14.82
2022-08-05T03:45:01.498Z,15.93
2022-08-05T03:47:30.318Z,16.90
2022-08-05T03:49:58.196Z,14.48
2022-08-05T03:52:37.708Z,17.80
2022-08-05T03:56:05.119Z,12.93
2022-08-05T03:58:27.197Z,13.93
2022-08-05T04:01:00.361Z,15.50
2022-08-05T04:03:29.528Z,10.02
2022-08-05T04:05:59.164Z,11.30
2022-08-05T04:08:36.820Z,13.93
2022-08-05T04:11:08.687Z,11.88
2022-08-05T04:13:51.222Z,20.27
2022-08-05T04:16:25.359Z,12.35
2022-08-05T04:19:00.324Z,15.20
2022-08-05T04:22:09.205Z,18.05
2022-08-05T04:24:19.653Z,23.35
2022-08-05T04:26:50.480Z,17.25
2022-08-05T04:29:17.674Z,19.63
2022-08-05T04:31:45.230Z,12.45
2022-08-05T04:34:24.484Z,17.17
2022-08-05T04:37:03.123Z,16.25
2022-08-05T04:39:31.293Z,16.77
2022-08-05T04:42:00.277Z,12.40
2022-08-05T04:44:30.929Z,16.33
2022-08-05T04:46:59.544Z,20.60
2022-08-05T04:49:38.619Z,11.93
2022-08-05T04:52:15.893Z,13.05
2022-08-05T04:54:42.910Z,11.70
2022-08-05T04:57:10.593Z,12.45
2022-08-05T04:59:38.994Z,10.05
2022-08-05T05:02:41.330Z,15.95
2022-08-05T05:05:02.365Z,15.50
2022-08-05T05:07:32.291Z,17.15
2022-08-05T05:10:02.314Z,8.48
2022-08-05T05:12:30.296Z,13.50
2022-08-05T05:14:57.419Z,9.80
2022-08-05T05:17:55.547Z,12.90
2022-08-05T05:20:14.047Z,14.70
2022-08-05T05:22:43.941Z,12.55
2022-08-05T05:25:16.374Z,15.40
2022-08-05T05:27:53.795Z,13.18
2022-08-05T05:30:30.737Z,11.88
2022-08-05T05:33:16.302Z,11.60
2022-08-05T05:35:48.340Z,11.43
2022-08-05T05:38:22.715Z,11.65
2022-08-05T05:40:56.905Z,10.55
2022-08-05T05:43:56.420Z,11.00
2022-08-05T05:46:16.325Z,16.60
2022-08-05T05:48:48.138Z,9.75
2022-08-05T05:51:28.062Z,13.32
2022-08-05T05:53:59.747Z,12.40
2022-08-05T05:56:34.447Z,13.18
2022-08-05T05:59:06.018Z,10.40
2022-08-05T06:01:39.763Z,12.93
2022-08-05T06:04:12.966Z,15.43
2022-08-05T06:06:46.603Z,11.88
2022-08-05T06:09:25.899Z,8.83
2022-08-05T06:12:04.030Z,13.05
2022-08-05T06:14:32.386Z,22.00
2022-08-05T06:17:02.210Z,13.90
2022-08-05T06:19:57.220Z,15.63
2022-08-05T06:22:29.829Z,15.50
2022-08-05T06:24:58.008Z,18.42
2022-08-05T06:28:11.314Z,26.02
2022-08-05T06:30:19.889Z,22.60
2022-08-05T06:32:50.815Z,21.15
2022-08-05T06:36:03.963Z,13.00
2022-08-05T06:38:10.075Z,17.48
2022-08-05T06:40:44.621Z,15.93
2022-08-05T06:43:58.763Z,15.23
2022-08-05T06:46:03.723Z,9.50
2022-08-05T06:48:53.518Z,17.77
2022-08-05T06:51:30.084Z,18.60
2022-08-05T06:54:04.086Z,10.13
2022-08-05T06:56:34.484Z,9.95
2022-08-05T06:59:08.473Z,10.52
2022-08-05T07:01:41.666Z,12.38
2022-08-05T07:04:10.511Z,12.73
2022-08-05T07:06:37.784Z,11.68
2022-08-05T07:09:05.981Z,14.70
2022-08-05T07:11:37.104Z,12.18
2022-08-05T07:14:29.972Z,17.10
2022-08-05T07:17:59.877Z,13.88
2022-08-05T07:22:42.018Z,14.52
2022-08-05T07:25:22.481Z,11.73
2022-08-05T07:27:58.853Z,20.63
2022-08-05T07:30:38.486Z,14.18
2022-08-05T07:33:10.562Z,22.58
2022-08-05T07:36:04.715Z,16.17
2022-08-05T07:38:34.803Z,14.38
2022-08-05T07:42:07.172Z,10.63
2022-08-05T07:43:56.177Z,20.90
2022-08-05T07:46:26.073Z,14.02
2022-08-05T07:49:02.503Z,13.10
2022-08-05T07:51:48.663Z,14.52
2022-08-05T07:54:26.237Z,10.68
2022-08-05T07:57:13.740Z,11.45
2022-08-05T07:59:42.198Z,8.02
2022-08-05T08:02:15.758Z,9.90
2022-08-05T08:04:46.227Z,13.63
2022-08-05T08:07:14.972Z,10.90
2022-08-05T08:09:43.776Z,7.45
2022-08-05T08:12:33.476Z,8.35
2022-08-05T08:15:02.627Z,9.60
2022-08-05T08:17:31.656Z,13.65
2022-08-05T08:20:23.479Z,11.68
2022-08-05T08:22:56.870Z,8.50
2022-08-05T08:25:26.800Z,14.30
2022-08-05T08:28:18.752Z,12.27
2022-08-05T08:31:00.739Z,9.93
2022-08-05T08:33:27.974Z,13.10
2022-08-05T08:36:18.407Z,12.00
2022-08-05T08:38:42.965Z,10.88
2022-08-05T08:41:26.128Z,13.88
2022-08-05T08:45:18.519Z,8.70
2022-08-05T08:47:21.726Z,10.57
2022-08-05T08:50:07.615Z,10.68
2022-08-05T08:52:47.359Z,10.45
2022-08-05T08:55:31.941Z,7.60
2022-08-05T08:58:09.293Z,11.27
2022-08-05T09:00:36.964Z,14.15
2022-08-05T09:03:08.130Z,10.73
2022-08-05T09:05:38.951Z,13.25
2022-08-05T09:08:27.289Z,14.25
2022-08-05T09:10:59.013Z,10.32
2022-08-05T09:13:31.512Z,15.48
2022-08-05T09:16:00.251Z,13.05
2022-08-05T09:18:28.225Z,12.52
2022-08-05T09:20:57.576Z,14.55
2022-08-05T09:23:28.805Z,8.68
2022-08-05T09:26:25.151Z,8.23
2022-08-05T09:29:05.206Z,10.20
2022-08-05T09:32:41.969Z,11.27
2022-08-05T09:34:21.032Z,13.68
2022-08-05T09:36:55.885Z,8.82
2022-08-05T09:39:41.518Z,14.82
2022-08-05T09:44:56.461Z,8.43
2022-08-05T09:47:36.501Z,9.88
2022-08-05T09:50:37.427Z,5.38
2022-08-05T09:53:06.339Z,10.25
2022-08-05T09:55:56.451Z,7.10
2022-08-05T09:58:25.233Z,6.90
2022-08-05T10:01:01.984Z,6.45
2022-08-05T10:03:58.500Z,6.93
2022-08-05T10:06:28.384Z,6.85
2022-08-05T10:08:57.062Z,8.68
2022-08-05T10:11:24.375Z,6.00
2022-08-05T10:13:59.086Z,15.82
2022-08-05T10:16:41.712Z,16.13
2022-08-05T10:19:23.852Z,8.65
2022-08-05T10:21:59.747Z,6.72
2022-08-05T10:24:28.710Z,7.18
2022-08-05T10:27:00.185Z,9.52
2022-08-05T10:30:06.608Z,6.80
2022-08-05T10:32:52.647Z,8.77
2022-08-05T10:35:06.365Z,11.73
2022-08-05T10:37:37.229Z,6.97
2022-08-05T10:40:44.978Z,7.38
2022-08-05T10:43:35.861Z,6.30
2022-08-05T10:46:09.120Z,7.10
2022-08-05T10:48:58.063Z,10.40
2022-08-05T10:51:53.227Z,9.70
2022-08-05T10:54:56.679Z,7.70
2022-08-05T10:57:31.763Z,7.90
2022-08-05T11:00:20.452Z,4.25
2022-08-05T11:03:23.512Z,3.97
2022-08-05T11:06:15.974Z,4.85
2022-08-05T11:09:16.399Z,6.13
2022-08-05T11:11:52.382Z,6.05
2022-08-05T11:15:01.424Z,4.00
2022-08-05T11:17:57.369Z,6.45
2022-08-05T11:20:41.708Z,6.40
2022-08-05T11:23:33.444Z,5.97
2022-08-05T11:26:28.671Z,4.97
2022-08-05T11:29:11.917Z,5.90
2022-08-05T11:31:57.405Z,8.25
2022-08-05T11:34:51.168Z,3.87
2022-08-05T11:38:30.623Z,5.05
2022-08-05T11:41:34.503Z,5.93
2022-08-05T11:44:07.261Z,6.18
2022-08-05T11:46:58.569Z,6.82
2022-08-05T11:49:39.031Z,4.25
2022-08-05T11:52:11.338Z,3.95
2022-08-05T11:54:41.297Z,3.33
2022-08-05T11:57:39.397Z,8.00
2022-08-05T11:59:56.815Z,8.15
2022-08-05T12:02:31.264Z,6.40
2022-08-05T12:05:06.787Z,8.68
2022-08-05T12:08:08.585Z,11.10
2022-08-05T12:10:38.552Z,4.55
2022-08-05T12:13:28.330Z,5.53
2022-08-05T12:16:18.836Z,4.47
2022-08-05T12:18:49.524Z,4.65
2022-08-05T12:21:29.881Z,6.70
2022-08-05T12:24:07.086Z,10.68
2022-08-05T12:26:40.899Z,5.78
2022-08-05T12:29:22.519Z,5.22
2022-08-05T12:31:57.046Z,5.80
2022-08-05T12:34:37.163Z,9.70
2022-08-05T12:37:17.379Z,8.73
2022-08-05T12:39:51.784Z,3.70
2022-08-05T12:42:25.449Z,9.40
2022-08-05T12:44:52.817Z,5.28
2022-08-05T12:47:31.169Z,8.23
2022-08-05T12:50:03.835Z,6.22
2022-08-05T12:52:39.425Z,4.57
2022-08-05T12:55:22.903Z,6.53
2022-08-05T12:58:48.951Z,8.50
2022-08-05T13:02:00.627Z,5.88
2022-08-05T13:03:42.902Z,9.30
2022-08-05T13:06:16.184Z,5.72
2022-08-05T13:08:52.371Z,10.75
2022-08-05T13:12:01.829Z,7.57
2022-08-05T13:14:35.950Z,7.05
2022-08-05T13:17:10.027Z,3.70
2022-08-05T13:19:40.411Z,21.23
2022-08-05T13:22:28.437Z,10.05
2022-08-05T13:25:05.164Z,7.57
2022-08-05T13:27:39.063Z,5.57
2022-08-05T13:30:33.560Z,4.93
2022-08-05T13:33:01.244Z,8.02
2022-08-05T13:35:43.225Z,3.80
2022-08-05T13:38:28.328Z,4.88
2022-08-05T13:41:00.081Z,7.32
2022-08-05T13:43:44.496Z,3.78
2022-08-05T13:46:16.223Z,4.80
2022-08-05T13:48:58.155Z,4.93
2022-08-05T13:51:40.085Z,4.07
2022-08-05T13:54:12.247Z,4.43
2022-08-05T13:56:45.237Z,9.82
2022-08-05T13:59:23.990Z,5.75
2022-08-05T14:01:57.489Z,7.07
2022-08-05T14:04:51.433Z,6.00
2022-08-05T14:07:26.439Z,7.03
2022-08-05T14:10:18.750Z,16.00
2022-08-05T14:12:48.626Z,6.95
2022-08-05T14:16:05.045Z,9.32
2022-08-05T14:18:04.999Z,5.93
2022-08-05T14:20:32.263Z,8.63
2022-08-05T14:23:00.286Z,6.43
2022-08-05T14:25:30.238Z,5.90
2022-08-05T14:27:58.380Z,7.72
2022-08-05T14:30:26.437Z,7.32
2022-08-05T14:32:55.030Z,8.30
2022-08-05T14:35:24.010Z,4.28
2022-08-05T14:38:05.309Z,4.40
2022-08-05T14:40:32.271Z,4.85
2022-08-05T14:43:01.318Z,3.75
2022-08-05T14:45:28.660Z,4.90
2022-08-05T14:48:03.393Z,4.43
2022-08-05T14:50:38.902Z,8.15
2022-08-05T14:53:08.458Z,7.03
2022-08-05T14:55:39.437Z,8.15
2022-08-05T14:58:11.585Z,4.90
2022-08-05T15:00:58.262Z,6.22
2022-08-05T15:03:33.909Z,9.15
2022-08-05T15:06:15.432Z,6.90
2022-08-05T15:08:59.293Z,9.23
2022-08-05T15:11:53.121Z,6.97
2022-08-05T15:14:35.794Z,7.18
2022-08-05T15:17:44.678Z,3.95
2022-08-05T15:19:59.104Z,9.80
2022-08-05T15:22:26.962Z,9.75
2022-08-05T15:24:59.538Z,6.85
2022-08-05T15:27:32.269Z,7.93
2022-08-05T15:32:31.920Z,5.07
2022-08-05T15:34:59.242Z,6.20
2022-08-05T15:38:08.474Z,13.63
2022-08-05T15:41:00.503Z,10.93
2022-08-05T15:43:12.526Z,8.77
2022-08-05T15:45:46.915Z,11.23
2022-08-05T15:48:15.689Z,5.45
2022-08-05T15:50:43.639Z,4.38
2022-08-05T15:53:14.417Z,5.28
2022-08-05T15:56:03.072Z,8.35
2022-08-05T15:58:35.443Z,6.45
2022-08-05T16:01:16.059Z,7.30
2022-08-05T16:03:50.497Z,6.72
2022-08-05T16:06:22.737Z,7.43
2022-08-05T16:08:53.613Z,8.65
2022-08-05T16:11:42.493Z,7.43
2022-08-05T16:14:16.945Z,11.63
2022-08-05T16:16:46.320Z,8.50
2022-08-05T16:19:25.278Z,18.88
2022-08-05T16:22:03.000Z,9.60
2022-08-05T16:24:39.879Z,5.18
2022-08-05T16:27:10.025Z,7.40
2022-08-05T16:29:50.291Z,5.43
2022-08-05T16:32:28.453Z,6.72
2022-08-05T16:34:58.847Z,8.57
2022-08-05T16:38:03.529Z,7.05
2022-08-05T16:40:28.869Z,9.73
2022-08-05T16:42:56.820Z,8.95
2022-08-05T16:46:05.101Z,11.68
2022-08-05T16:48:12.042Z,12.90
2022-08-05T16:50:54.594Z,6.97
2022-08-05T16:53:32.185Z,13.35
2022-08-05T16:56:00.170Z,10.27
2022-08-05T16:58:27.441Z,7.05
2022-08-05T17:00:55.445Z,8.23
2022-08-05T17:03:22.866Z,7.38
2022-08-05T17:05:54.265Z,8.45
2022-08-05T17:08:36.310Z,11.80
2022-08-05T17:11:17.037Z,8.23
2022-08-05T17:13:45.458Z,9.23
2022-08-05T17:16:33.532Z,11.50
2022-08-05T17:19:02.533Z,15.43
2022-08-05T17:21:35.497Z,17.25
2022-08-05T17:24:19.477Z,19.15
2022-08-05T17:26:58.825Z,14.65
2022-08-05T17:29:33.647Z,12.20
2022-08-05T17:32:11.502Z,9.23
2022-08-05T17:34:44.905Z,10.68
2022-08-05T17:37:39.587Z,4.85
2022-08-05T17:40:10.200Z,9.80
2022-08-05T17:42:41.731Z,6.53
2022-08-05T17:45:21.901Z,5.65
2022-08-05T17:47:55.806Z,4.25
2022-08-05T17:50:30.823Z,6.78
2022-08-05T17:55:37.769Z,5.88
2022-08-05T17:58:12.585Z,5.72
2022-08-05T18:00:45.385Z,6.43
2022-08-05T18:03:56.343Z,5.65
2022-08-05T18:06:12.286Z,6.15
2022-08-05T18:08:46.043Z,7.18
2022-08-05T18:11:24.516Z,7.57
2022-08-05T18:14:03.181Z,7.18
2022-08-05T18:16:33.300Z,7.25
2022-08-05T18:19:00.273Z,7.22
2022-08-05T18:22:06.978Z,5.60
2022-08-05T18:24:15.891Z,12.57
2022-08-05T18:26:43.895Z,7.20
2022-08-05T18:29:11.955Z,9.90
2022-08-05T18:31:45.284Z,13.05
2022-08-05T18:34:13.387Z,15.93
2022-08-05T18:36:43.682Z,24.00
2022-08-05T18:39:42.205Z,17.33
2022-08-05T18:42:04.896Z,16.58
2022-08-05T18:44:48.906Z,10.97
2022-08-05T18:47:22.764Z,11.95
2022-08-05T18:50:15.513Z,10.82
2022-08-05T18:52:50.922Z,13.73
2022-08-05T18:55:22.301Z,13.82
2022-08-05T18:57:53.401Z,11.10
2022-08-05T19:00:29.058Z,11.70
2022-08-05T19:03:03.927Z,11.13
2022-08-05T19:06:11.915Z,10.55
2022-08-05T19:08:22.099Z,10.15
2022-08-05T19:11:04.428Z,10.45
2022-08-05T19:13:35.894Z,11.70
2022-08-05T19:16:25.085Z,10.95
2022-08-05T19:18:56.692Z,10.05
2022-08-05T19:21:25.337Z,10.50
2022-08-05T19:24:05.996Z,13.73
2022-08-05T19:26:36.835Z,16.02
2022-08-05T19:29:21.658Z,15.30
2022-08-05T19:31:51.339Z,17.17
2022-08-05T19:34:18.888Z,17.08
2022-08-05T19:36:45.867Z,12.30
2022-08-05T19:39:17.176Z,15.63
2022-08-05T19:42:07.709Z,14.93
2022-08-05T19:44:35.269Z,11.63
2022-08-05T19:47:04.921Z,17.90
2022-08-05T19:49:37.548Z,14.60
2022-08-05T19:52:30.907Z,12.68
2022-08-05T19:54:52.855Z,16.75
2022-08-05T19:57:20.055Z,15.52
2022-08-05T20:00:08.113Z,12.73
2022-08-05T20:02:39.905Z,15.52
2022-08-05T20:05:09.477Z,12.63
2022-08-05T20:07:45.687Z,14.48
2022-08-05T20:10:19.410Z,17.75
2022-08-05T20:12:49.952Z,12.95
2022-08-05T20:15:23.231Z,14.55
2022-08-05T20:18:32.651Z,10.77
2022-08-05T20:20:57.812Z,13.27
2022-08-05T20:23:40.079Z,16.23
2022-08-05T20:26:17.699Z,22.27
2022-08-05T20:28:50.881Z,17.25
2022-08-05T20:31:21.753Z,16.35
2022-08-05T20:33:51.373Z,11.88
2022-08-05T20:36:21.136Z,13.57
2022-08-05T20:38:54.282Z,6.78
2022-08-05T20:41:44.472Z,17.48
2022-08-05T20:47:03.198Z,7.43
2022-08-05T20:49:37.844Z,11.35
2022-08-05T20:52:08.055Z,10.55
2022-08-05T20:54:43.260Z,14.82
2022-08-05T20:57:42.243Z,16.02
2022-08-05T21:00:20.869Z,24.25
2022-08-05T21:03:07.093Z,15.20
2022-08-05T21:05:53.734Z,14.52
2022-08-05T21:08:26.850Z,15.85
2022-08-05T21:11:01.363Z,16.25
2022-08-05T21:13:48.485Z,16.50
2022-08-05T21:16:29.543Z,18.48
2022-08-05T21:19:00.110Z,23.00
2022-08-05T21:21:39.670Z,16.60
2022-08-05T21:24:12.856Z,20.50
2022-08-05T21:26:42.736Z,16.88
2022-08-05T21:29:16.687Z,17.55
2022-08-05T21:31:45.122Z,12.30
2022-08-05T21:34:12.105Z,17.67
2022-08-05T21:36:39.789Z,11.30
2022-08-05T21:39:14.268Z,14.18
2022-08-05T21:41:52.706Z,12.75
2022-08-05T21:44:32.463Z,15.65
2022-08-05T21:47:00.367Z,12.10
2022-08-05T21:49:48.509Z,18.77
2022-08-05T21:52:27.662Z,17.20
2022-08-05T21:55:06.410Z,10.40
2022-08-05T21:57:42.763Z,16.00
2022-08-05T22:00:11.851Z,12.90
2022-08-05T22:02:42.967Z,17.30
2022-08-05T22:05:12.200Z,15.65
2022-08-05T22:07:59.442Z,12.95
2022-08-05T22:10:28.396Z,15.18
2022-08-05T22:12:59.190Z,13.40
2022-08-05T22:16:02.070Z,19.27
2022-08-05T22:18:25.954Z,13.07
2022-08-05T22:20:54.310Z,10.80
2022-08-05T22:24:00.968Z,12.82
2022-08-05T22:26:50.499Z,10.63
2022-08-05T22:29:26.794Z,19.88
2022-08-05T22:32:03.180Z,14.75
2022-08-05T22:34:33.412Z,11.45
2022-08-05T22:37:03.953Z,10.88
2022-08-05T22:39:34.967Z,13.48
2022-08-05T22:42:11.631Z,10.45
2022-08-05T22:44:48.674Z,10.27
2022-08-05T22:47:29.199Z,18.77
2022-08-05T22:50:20.932Z,10.65
2022-08-05T22:52:51.427Z,8.25
2022-08-05T22:55:21.289Z,14.73
2022-08-05T22:57:53.813Z,14.00
2022-08-05T23:00:24.215Z,14.20
2022-08-05T23:02:53.955Z,14.20
2022-08-05T23:05:22.476Z,16.88
2022-08-05T23:07:51.735Z,11.40
2022-08-05T23:10:23.966Z,16.55
2022-08-05T23:12:55.128Z,24.88
2022-08-05T23:15:29.637Z,10.23
2022-08-05T23:18:03.236Z,8.63
2022-08-05T23:20:32.748Z,10.63
2022-08-05T23:23:05.730Z,9.30
2022-08-05T23:25:53.688Z,12.45
2022-08-05T23:28:29.395Z,14.13
2022-08-05T23:31:15.807Z,11.90
2022-08-05T23:34:06.036Z,12.48
2022-08-05T23:36:40.054Z,22.35
2022-08-05T23:39:32.214Z,21.67
2022-08-05T23:42:08.598Z,12.60
2022-08-05T23:44:42.621Z,21.67
2022-08-05T23:47:15.620Z,23.58
2022-08-05T23:49:45.820Z,16.20
2022-08-05T23:52:35.957Z,19.58
2022-08-05T23:55:17.121Z,29.20
2022-08-05T23:57:44.440Z,21.38
